CheckWX is a tool to help pilots better visualize weather data.  It is not intended as a substitute for an official pre-flight weather briefing.

15:00:24 UTC

KBMT METAR
Beaumont Municipal Airport
Beaumont, Texas, USA
Current

25 mins ago

KBMT 221435Z AUTO 16007KT 10SM SCT020 BKN027 22/17 A3013 RMK AO2 T02180166
Observed
Apr-22 @ 14:35 UTC
Wind
  • 160° at 7 KTS
Visibility
10 SM
Flight Rules
MVFR
Cloud Levels
  • Scattered at 2,000' AGL
  • Broken at 2,700' AGL
Temperature
22°C / 72°F
Dewpoint
17°C / 63°F
Humidity
73%
Altimeter
30.13" Hg
Pressure
1020.32 hPa
Previous

45 mins ago

KBMT 221415Z AUTO 13011G14KT 10SM SCT027 22/17 A3012 RMK AO2 T02220165
Observed
Apr-22 @ 14:15 UTC
Wind
  • 130° at 11 KTS
  • Gusting to 14 KTS
Visibility
10 SM
Flight Rules
VFR
Cloud Levels
  • Scattered at 2,700' AGL
Temperature
22°C / 72°F
Dewpoint
17°C / 63°F
Humidity
73%
Altimeter
30.12" Hg
Pressure
1020.02 hPa
Previous

1 hour ago

KBMT 221355Z AUTO 14009KT 10SM SCT025 21/17 A3012 RMK AO2 T02090168
Observed
Apr-22 @ 13:55 UTC
Wind
  • 140° at 9 KTS
Visibility
10 SM
Flight Rules
VFR
Cloud Levels
  • Scattered at 2,500' AGL
Temperature
21°C / 70°F
Dewpoint
17°C / 63°F
Humidity
78%
Altimeter
30.12" Hg
Pressure
1020.02 hPa